createdAt,value
2019-01-31T00:00:46.607Z,98345.05
2019-01-31T00:06:14.268Z,98355.27
2019-01-31T00:11:38.673Z,98353.17
2019-01-31T00:23:34.512Z,98360.52
2019-01-31T00:29:17.150Z,98363.39
2019-01-31T00:35:02.694Z,98366.84
2019-01-31T00:40:36.033Z,98369.98
2019-01-31T00:46:11.146Z,98377.61
2019-01-31T00:51:30.421Z,98376.58
2019-01-31T00:57:02.864Z,98373.25
2019-01-31T01:02:36.934Z,98369.92
2019-01-31T01:08:20.329Z,98382.00
2019-01-31T01:14:06.558Z,98390.41
2019-01-31T01:20:08.340Z,98393.30
2019-01-31T01:26:12.869Z,98397.81
2019-01-31T01:31:47.624Z,98400.99
2019-01-31T01:37:31.844Z,98404.64
2019-01-31T01:43:16.005Z,98407.57
2019-01-31T01:48:30.754Z,98407.06
2019-01-31T01:54:07.962Z,98417.30
2019-01-31T01:59:45.653Z,98415.97
2019-01-31T02:05:32.681Z,98421.20
2019-01-31T02:11:22.363Z,98418.28
2019-01-31T02:16:51.688Z,98421.17
2019-01-31T02:22:25.121Z,98413.28
2019-01-31T02:28:16.450Z,98403.50
2019-01-31T02:34:07.183Z,98407.91
2019-01-31T02:39:43.075Z,98407.94
2019-01-31T02:45:06.654Z,98413.89
2019-01-31T02:51:08.123Z,98404.44
2019-01-31T02:57:00.189Z,98404.72
2019-01-31T03:02:26.950Z,98410.23
2019-01-31T03:08:13.050Z,98414.43
2019-01-31T03:13:54.542Z,98413.89
2019-01-31T03:19:49.881Z,98417.30
2019-01-31T03:25:35.649Z,98426.45
2019-01-31T03:31:28.560Z,98431.97
2019-01-31T03:37:15.750Z,98430.42
2019-01-31T03:43:05.386Z,98435.13
2019-01-31T03:48:50.176Z,98426.75
2019-01-31T03:54:57.134Z,98427.56
2019-01-31T04:00:26.712Z,98428.42
2019-01-31T04:06:01.498Z,98435.02
2019-01-31T04:11:08.675Z,98438.17
2019-01-31T04:16:13.729Z,98437.92
2019-01-31T04:21:27.899Z,98444.75
2019-01-31T04:26:33.651Z,98434.79
2019-01-31T04:31:38.924Z,98433.48
2019-01-31T04:36:44.127Z,98445.87
2019-01-31T04:41:49.436Z,98440.13
2019-01-31T04:46:54.502Z,98449.57
2019-01-31T04:52:00.689Z,98451.70
2019-01-31T04:57:06.644Z,98454.06
2019-01-31T05:02:17.822Z,98455.36
2019-01-31T05:07:23.238Z,98459.80
2019-01-31T05:12:28.657Z,98460.64
2019-01-31T05:17:34.342Z,98461.45
2019-01-31T05:22:39.583Z,98466.45
2019-01-31T05:27:44.735Z,98471.17
2019-01-31T05:32:50.276Z,98473.79
2019-01-31T05:37:55.424Z,98469.87
2019-01-31T05:43:00.966Z,98478.27
2019-01-31T05:48:06.077Z,98479.31
2019-01-31T05:53:12.030Z,98473.53
2019-01-31T05:58:17.114Z,98478.50
2019-01-31T06:03:22.480Z,98488.47
2019-01-31T06:08:27.929Z,98481.67
2019-01-31T06:13:33.113Z,98481.17
2019-01-31T06:18:39.318Z,98491.36
2019-01-31T06:23:44.631Z,98491.64
2019-01-31T06:28:49.997Z,98498.42
2019-01-31T06:33:55.514Z,98501.31
2019-01-31T06:39:24.878Z,98513.09
2019-01-31T06:44:30.254Z,98513.09
2019-01-31T06:49:35.382Z,98523.81
2019-01-31T06:54:40.966Z,98531.66
2019-01-31T06:59:46.562Z,98533.23
2019-01-31T07:04:52.446Z,98538.73
2019-01-31T07:09:57.597Z,98544.20
2019-01-31T07:15:03.274Z,98541.34
2019-01-31T07:20:10.562Z,98541.34
2019-01-31T07:25:18.380Z,98548.39
2019-01-31T07:30:26.704Z,98556.50
2019-01-31T07:35:30.861Z,98560.70
2019-01-31T07:40:36.124Z,98571.42
2019-01-31T07:45:41.416Z,98564.62
2019-01-31T07:50:46.926Z,98562.27
2019-01-31T07:55:51.971Z,98560.42
2019-01-31T08:00:57.238Z,98565.39
2019-01-31T08:06:02.276Z,98564.34
2019-01-31T08:11:07.872Z,98561.20
2019-01-31T08:16:13.003Z,98555.72
2019-01-31T08:21:18.297Z,98563.78
2019-01-31T08:26:23.467Z,98562.98
2019-01-31T08:31:28.622Z,98566.11
2019-01-31T08:36:34.486Z,98573.98
2019-01-31T08:41:39.628Z,98576.59
2019-01-31T08:46:44.742Z,98576.86
2019-01-31T08:51:49.787Z,98571.11
2019-01-31T08:56:55.262Z,98583.39
2019-01-31T09:02:06.742Z,98572.12
2019-01-31T09:07:11.851Z,98576.81
2019-01-31T09:12:17.050Z,98570.52
2019-01-31T09:17:22.634Z,98585.17
2019-01-31T09:28:59.232Z,98591.13
2019-01-31T09:34:39.448Z,98598.67
2019-01-31T09:40:18.980Z,98592.36
2019-01-31T09:45:49.622Z,98604.41
2019-01-31T09:51:40.450Z,98595.96
2019-01-31T09:57:21.753Z,98602.25
2019-01-31T10:03:07.120Z,98610.09
2019-01-31T10:09:05.608Z,98616.59
2019-01-31T10:14:41.606Z,98607.88
2019-01-31T10:20:06.776Z,98613.58
2019-01-31T10:25:56.310Z,98610.16
2019-01-31T10:31:28.214Z,98604.32
2019-01-31T10:37:15.709Z,98605.34
2019-01-31T10:43:00.140Z,98600.30
2019-01-31T10:48:25.072Z,98595.22
2019-01-31T10:54:20.725Z,98589.57
2019-01-31T11:00:23.440Z,98580.57
2019-01-31T11:05:58.981Z,98576.70
2019-01-31T11:11:33.026Z,98580.30
2019-01-31T11:17:14.139Z,98567.77
2019-01-31T11:23:03.169Z,98566.91
2019-01-31T11:28:18.364Z,98566.44
2019-01-31T11:34:09.956Z,98559.00
2019-01-31T11:39:55.036Z,98558.54
2019-01-31T11:45:56.497Z,98558.36
2019-01-31T11:51:38.498Z,98552.50
2019-01-31T11:57:40.149Z,98554.96
2019-01-31T12:02:54.694Z,98551.58
2019-01-31T12:07:51.980Z,98552.81
2019-01-31T12:12:57.504Z,98541.67
2019-01-31T12:18:04.465Z,98543.45
2019-01-31T12:23:10.715Z,98540.53
2019-01-31T12:28:17.174Z,98530.23
2019-01-31T12:33:22.428Z,98536.37
2019-01-31T12:38:36.479Z,98527.77
2019-01-31T12:43:35.532Z,98519.22
2019-01-31T12:48:40.730Z,98516.76
2019-01-31T12:53:46.082Z,98509.78
2019-01-31T12:58:51.423Z,98512.92
2019-01-31T13:03:58.161Z,98504.05
2019-01-31T13:09:04.773Z,98504.77
2019-01-31T13:14:11.550Z,98493.80
2019-01-31T13:19:48.581Z,98489.14
2019-01-31T13:30:54.853Z,98491.09
2019-01-31T13:36:20.178Z,98489.67
2019-01-31T13:41:25.624Z,98491.16
2019-01-31T13:46:32.773Z,98487.82
2019-01-31T13:51:45.665Z,98488.14
2019-01-31T13:57:28.069Z,98481.66
2019-01-31T14:02:59.526Z,98484.95
2019-01-31T14:08:06.266Z,98492.73
2019-01-31T14:13:15.251Z,98487.61
2019-01-31T14:18:20.840Z,98489.39
2019-01-31T14:23:26.083Z,98487.77
2019-01-31T14:28:32.364Z,98494.23
2019-01-31T14:33:37.648Z,98497.20
2019-01-31T14:38:43.175Z,98498.27
2019-01-31T14:43:48.481Z,98498.86
2019-01-31T14:48:56.206Z,98493.91
2019-01-31T14:54:01.882Z,98488.55
2019-01-31T14:59:07.582Z,98490.81
2019-01-31T15:04:12.811Z,98491.20
2019-01-31T15:09:18.071Z,98489.42
2019-01-31T15:14:32.023Z,98488.75
2019-01-31T15:19:33.130Z,98487.42
2019-01-31T15:24:38.316Z,98484.59
2019-01-31T15:29:44.751Z,98486.37
2019-01-31T15:34:49.923Z,98489.41
2019-01-31T15:39:55.331Z,98488.77
2019-01-31T15:45:01.888Z,98483.91
2019-01-31T15:50:08.764Z,98494.77
2019-01-31T15:55:15.941Z,98489.98
2019-01-31T16:00:32.951Z,98488.04
2019-01-31T16:05:38.232Z,98488.47
2019-01-31T16:10:43.728Z,98490.46
2019-01-31T16:15:48.985Z,98490.88
2019-01-31T16:20:59.264Z,98488.57
2019-01-31T16:26:07.676Z,98490.20
2019-01-31T16:31:13.090Z,98486.87
2019-01-31T16:36:21.706Z,98487.98
2019-01-31T16:41:27.984Z,98480.99
2019-01-31T16:46:36.313Z,98480.53
2019-01-31T16:51:40.808Z,98473.97
2019-01-31T16:56:46.178Z,98475.34
2019-01-31T17:01:51.504Z,98475.02
2019-01-31T17:06:57.124Z,98479.73
2019-01-31T17:12:02.330Z,98473.20
2019-01-31T17:17:08.650Z,98463.03
2019-01-31T17:22:19.513Z,98462.30
2019-01-31T17:27:25.513Z,98465.15
2019-01-31T17:32:31.780Z,98459.16
2019-01-31T17:37:37.227Z,98454.19
2019-01-31T17:42:42.983Z,98443.59
2019-01-31T17:47:48.577Z,98441.00
2019-01-31T17:52:53.865Z,98444.52
2019-01-31T17:57:59.174Z,98437.00
2019-01-31T18:03:04.578Z,98442.88
2019-01-31T18:08:09.988Z,98444.55
2019-01-31T18:13:15.945Z,98446.50
2019-01-31T18:18:21.385Z,98438.37
2019-01-31T18:23:27.194Z,98437.11
2019-01-31T18:28:32.559Z,98428.75
2019-01-31T18:33:37.961Z,98429.11
2019-01-31T18:38:44.570Z,98425.73
2019-01-31T18:43:50.338Z,98430.46
2019-01-31T18:48:57.538Z,98424.42
2019-01-31T18:54:03.052Z,98426.31
2019-01-31T18:59:08.221Z,98419.30
2019-01-31T19:04:13.887Z,98417.27
2019-01-31T19:09:19.243Z,98414.91
2019-01-31T19:14:26.051Z,98421.99
2019-01-31T19:19:32.359Z,98414.71
2019-01-31T19:24:38.214Z,98420.55
2019-01-31T19:29:44.418Z,98414.47
2019-01-31T19:34:50.018Z,98419.00
2019-01-31T19:39:55.378Z,98421.66
2019-01-31T19:45:01.672Z,98423.80
2019-01-31T19:50:08.479Z,98410.98
2019-01-31T19:55:13.832Z,98415.20
2019-01-31T20:00:20.617Z,98409.44
2019-01-31T20:05:27.140Z,98404.53
2019-01-31T20:10:32.379Z,98401.66
2019-01-31T20:15:37.526Z,98407.75
2019-01-31T20:20:43.033Z,98405.43
2019-01-31T20:25:48.550Z,98398.63
2019-01-31T20:30:53.868Z,98395.23
2019-01-31T20:35:59.450Z,98389.98
2019-01-31T20:41:04.922Z,98388.70
2019-01-31T20:46:10.177Z,98377.19
2019-01-31T20:51:15.462Z,98378.81
2019-01-31T20:56:20.839Z,98378.31
2019-01-31T21:01:26.101Z,98373.84
2019-01-31T21:06:41.091Z,98379.12
2019-01-31T21:11:38.138Z,98377.31
2019-01-31T21:16:52.599Z,98369.47
2019-01-31T21:22:01.122Z,98367.44
2019-01-31T21:27:11.570Z,98363.75
2019-01-31T21:32:19.746Z,98359.58
2019-01-31T21:37:33.814Z,98359.31
2019-01-31T21:42:39.107Z,98357.52
2019-01-31T21:47:44.325Z,98359.58
2019-01-31T21:52:49.494Z,98352.05
2019-01-31T21:57:54.607Z,98352.30
2019-01-31T22:02:59.882Z,98346.53
2019-01-31T22:08:05.182Z,98342.88
2019-01-31T22:13:10.355Z,98335.06
2019-01-31T22:18:17.894Z,98332.20
2019-01-31T22:23:22.340Z,98321.22
2019-01-31T22:28:27.587Z,98312.56
2019-01-31T22:33:32.811Z,98317.32
2019-01-31T22:38:38.051Z,98303.98
2019-01-31T22:43:43.173Z,98295.34
2019-01-31T22:48:48.586Z,98287.77
2019-01-31T22:53:54.023Z,98282.56
2019-01-31T22:58:59.181Z,98276.03
2019-01-31T23:04:04.956Z,98276.06
2019-01-31T23:09:12.667Z,98274.78
2019-01-31T23:14:17.955Z,98272.48
2019-01-31T23:19:23.299Z,98265.45
2019-01-31T23:24:28.450Z,98259.95
2019-01-31T23:29:33.663Z,98263.58
2019-01-31T23:34:38.802Z,98256.30
2019-01-31T23:39:49.009Z,98263.87
2019-01-31T23:44:54.141Z,98266.78
2019-01-31T23:49:59.217Z,98258.16
2019-01-31T23:55:05.073Z,98242.48
